createdAt,value
2023-03-24T00:01:10.742Z,5.50
2023-03-24T00:06:19.128Z,7.63
2023-03-24T00:11:26.852Z,5.73
2023-03-24T00:16:35.383Z,5.97
2023-03-24T00:21:42.401Z,5.10
2023-03-24T00:26:52.201Z,6.47
2023-03-24T00:31:58.602Z,7.18
2023-03-24T00:37:05.370Z,11.15
2023-03-24T00:42:14.138Z,6.88
2023-03-24T00:47:26.204Z,7.53
2023-03-24T00:52:34.565Z,10.23
2023-03-24T00:57:42.555Z,7.13
2023-03-24T01:02:54.315Z,7.65
2023-03-24T01:08:03.914Z,8.35
2023-03-24T01:13:12.134Z,7.43
2023-03-24T01:18:18.719Z,8.48
2023-03-24T01:23:27.549Z,8.43
2023-03-24T01:33:47.560Z,10.38
2023-03-24T01:38:54.518Z,7.10
2023-03-24T01:44:02.708Z,10.00
2023-03-24T01:49:11.527Z,7.53
2023-03-24T01:54:22.729Z,8.23
2023-03-24T01:59:38.158Z,8.75
2023-03-24T02:05:10.922Z,8.13
2023-03-24T02:10:24.142Z,8.40
2023-03-24T02:15:36.292Z,12.18
2023-03-24T02:21:28.643Z,15.02
2023-03-24T02:26:57.479Z,13.38
2023-03-24T02:32:37.872Z,10.73
2023-03-24T02:38:20.268Z,15.77
2023-03-24T02:43:43.304Z,13.07
2023-03-24T02:49:08.636Z,13.68
2023-03-24T02:54:20.786Z,10.45
2023-03-24T02:59:37.865Z,11.98
2023-03-24T03:05:03.676Z,8.57
2023-03-24T03:10:17.455Z,11.20
2023-03-24T03:15:29.744Z,8.05
2023-03-24T03:20:43.289Z,12.50
2023-03-24T03:25:57.256Z,8.43
2023-03-24T03:31:10.936Z,7.88
2023-03-24T03:36:24.678Z,7.40
2023-03-24T03:41:31.291Z,7.05
2023-03-24T03:46:39.892Z,7.07
2023-03-24T03:51:57.617Z,7.60
2023-03-24T03:57:04.994Z,10.15
2023-03-24T04:02:39.811Z,6.93
2023-03-24T04:08:08.705Z,7.17
2023-03-24T04:13:46.965Z,10.43
2023-03-24T04:19:16.401Z,9.45
2023-03-24T04:24:40.477Z,13.43
2023-03-24T04:29:56.802Z,10.73
2023-03-24T04:35:14.601Z,8.10
2023-03-24T04:40:44.424Z,9.25
2023-03-24T04:45:51.289Z,8.27
2023-03-24T04:51:17.699Z,9.95
2023-03-24T04:56:43.192Z,6.82
2023-03-24T05:02:08.431Z,7.35
2023-03-24T05:07:28.789Z,8.15
2023-03-24T05:12:38.605Z,10.82
2023-03-24T05:18:03.833Z,10.02
2023-03-24T05:23:11.829Z,6.78
2023-03-24T05:28:19.399Z,8.07
2023-03-24T05:33:27.144Z,8.50
2023-03-24T05:38:35.674Z,9.32
2023-03-24T05:43:42.140Z,9.15
2023-03-24T05:48:51.613Z,10.80
2023-03-24T05:54:00.961Z,12.47
2023-03-24T05:59:14.985Z,10.27
2023-03-24T06:04:49.463Z,8.88
2023-03-24T06:10:03.749Z,9.48
2023-03-24T06:15:24.601Z,12.27
2023-03-24T06:20:31.329Z,11.70
2023-03-24T06:25:47.860Z,11.48
2023-03-24T06:30:59.844Z,12.75
2023-03-24T06:36:16.328Z,10.55
2023-03-24T06:41:25.513Z,14.43
2023-03-24T06:46:36.223Z,9.93
2023-03-24T06:51:42.813Z,10.50
2023-03-24T06:56:53.258Z,9.13
2023-03-24T07:02:02.554Z,9.00
2023-03-24T07:07:44.757Z,10.85
2023-03-24T07:13:16.224Z,8.48
2023-03-24T07:18:22.779Z,17.08
2023-03-24T07:23:36.595Z,12.45
2023-03-24T07:28:44.489Z,12.00
2023-03-24T07:33:51.198Z,9.70
2023-03-24T07:38:57.893Z,13.02
2023-03-24T07:44:13.569Z,10.02
2023-03-24T07:49:26.302Z,14.45
2023-03-24T07:54:47.017Z,10.85
2023-03-24T08:00:18.389Z,10.70
2023-03-24T08:05:35.868Z,8.90
2023-03-24T08:11:08.563Z,9.32
2023-03-24T08:16:16.584Z,12.75
2023-03-24T08:21:23.128Z,10.20
2023-03-24T08:26:29.751Z,10.43
2023-03-24T08:31:39.121Z,8.90
2023-03-24T08:36:45.950Z,8.20
2023-03-24T08:41:54.949Z,7.55
2023-03-24T08:52:10.546Z,7.47
2023-03-24T08:57:17.022Z,6.82
2023-03-24T09:02:24.985Z,7.18
2023-03-24T09:07:31.547Z,7.55
2023-03-24T09:12:39.126Z,6.85
2023-03-24T09:17:47.115Z,6.03
2023-03-24T09:22:53.454Z,7.77
2023-03-24T09:27:59.898Z,6.20
2023-03-24T09:33:07.662Z,4.53
2023-03-24T09:38:14.174Z,5.97
2023-03-24T09:43:29.749Z,9.07
2023-03-24T09:48:42.295Z,6.35
2023-03-24T09:53:59.723Z,6.35
2023-03-24T09:59:09.374Z,7.20
2023-03-24T10:04:21.499Z,7.93
2023-03-24T10:09:31.090Z,6.45
2023-03-24T10:14:57.788Z,9.27
2023-03-24T10:20:21.461Z,7.13
2023-03-24T10:25:37.755Z,6.13
2023-03-24T10:30:48.133Z,6.75
2023-03-24T10:36:05.325Z,5.10
2023-03-24T10:41:20.278Z,5.60
2023-03-24T10:46:31.699Z,4.47
2023-03-24T10:51:41.620Z,4.57
2023-03-24T10:56:49.861Z,6.28
2023-03-24T11:02:04.335Z,5.88
2023-03-24T11:07:21.328Z,5.55
2023-03-24T11:12:30.143Z,4.07
2023-03-24T11:17:37.209Z,5.57
2023-03-24T11:22:50.515Z,5.05
2023-03-24T11:28:02.712Z,6.63
2023-03-24T11:33:09.735Z,5.05
2023-03-24T11:38:29.548Z,5.05
2023-03-24T11:43:37.310Z,5.20
2023-03-24T11:48:51.279Z,4.22
2023-03-24T11:54:00.130Z,4.93
2023-03-24T11:59:14.937Z,3.85
2023-03-24T12:04:53.178Z,4.72
2023-03-24T12:10:08.218Z,4.30
2023-03-24T12:15:38.587Z,4.18
2023-03-24T12:20:51.654Z,3.70
2023-03-24T12:26:19.139Z,3.53
2023-03-24T12:32:00.139Z,6.93
2023-03-24T12:37:15.982Z,3.22
2023-03-24T12:42:27.202Z,3.22
2023-03-24T12:48:13.227Z,2.00
2023-03-24T12:53:49.149Z,3.05
2023-03-24T12:59:02.733Z,3.13
2023-03-24T13:04:17.094Z,3.78
2023-03-24T13:09:40.574Z,2.67
2023-03-24T13:15:01.874Z,3.00
2023-03-24T13:20:17.882Z,2.78
2023-03-24T13:25:33.974Z,3.35
2023-03-24T13:30:44.713Z,3.80
2023-03-24T13:36:09.390Z,2.25
2023-03-24T13:41:21.626Z,3.45
2023-03-24T13:46:30.044Z,2.10
2023-03-24T13:51:40.306Z,3.58
2023-03-24T13:56:54.958Z,2.55
2023-03-24T14:03:14.630Z,1.65
2023-03-24T14:08:21.502Z,4.93
2023-03-24T14:13:47.677Z,2.65
2023-03-24T14:19:26.949Z,2.28
2023-03-24T14:24:34.458Z,2.75
2023-03-24T14:29:49.968Z,2.58
2023-03-24T14:35:01.468Z,5.40
2023-03-24T14:40:29.868Z,3.38
2023-03-24T14:46:00.529Z,3.42
2023-03-24T14:51:36.899Z,2.83
2023-03-24T14:56:47.862Z,2.38
2023-03-24T15:02:02.157Z,2.05
2023-03-24T15:07:15.424Z,4.22
2023-03-24T15:12:23.494Z,3.30
2023-03-24T15:17:30.008Z,2.30
2023-03-24T15:22:44.779Z,5.22
2023-03-24T15:27:52.839Z,4.05
2023-03-24T15:32:59.425Z,2.73
2023-03-24T15:38:07.340Z,2.80
2023-03-24T15:43:22.025Z,5.70
2023-03-24T15:48:33.222Z,4.15
2023-03-24T15:53:44.987Z,4.95
2023-03-24T15:58:56.310Z,7.90
2023-03-24T16:04:09.918Z,4.68
2023-03-24T16:09:23.083Z,5.60
2023-03-24T16:14:33.044Z,6.72
2023-03-24T16:19:39.555Z,7.57
2023-03-24T16:24:47.645Z,6.03
2023-03-24T16:29:57.412Z,6.55
2023-03-24T16:35:03.876Z,4.25
2023-03-24T16:40:27.306Z,5.53
2023-03-24T16:45:35.945Z,7.68
2023-03-24T16:50:44.583Z,8.15
2023-03-24T16:55:52.759Z,11.25
2023-03-24T17:01:03.790Z,14.75
2023-03-24T17:06:17.724Z,11.40
2023-03-24T17:11:32.231Z,12.27
2023-03-24T17:16:43.915Z,8.93
2023-03-24T17:22:00.038Z,10.32
2023-03-24T17:27:17.199Z,13.30
2023-03-24T17:32:30.466Z,9.35
2023-03-24T17:37:38.597Z,10.70
2023-03-24T17:42:50.900Z,9.83
2023-03-24T17:47:59.090Z,10.18
2023-03-24T17:53:06.847Z,10.27
2023-03-24T17:58:20.913Z,11.43
2023-03-24T18:03:31.918Z,10.80
2023-03-24T18:13:48.583Z,15.07
2023-03-24T18:18:57.790Z,15.18
2023-03-24T18:24:17.908Z,14.32
2023-03-24T18:29:27.765Z,11.13
2023-03-24T18:34:36.811Z,13.05
2023-03-24T18:39:45.815Z,9.75
2023-03-24T18:50:06.195Z,7.10
2023-03-24T18:55:19.249Z,9.18
2023-03-24T19:00:31.003Z,8.82
2023-03-24T19:05:42.689Z,6.90
2023-03-24T19:10:57.343Z,6.82
2023-03-24T19:16:09.805Z,8.15
2023-03-24T19:21:23.330Z,6.22
2023-03-24T19:26:34.935Z,6.50
2023-03-24T19:31:51.863Z,8.20
2023-03-24T19:37:03.566Z,9.65
2023-03-24T19:42:12.655Z,7.80
2023-03-24T19:47:24.814Z,12.50
2023-03-24T19:52:33.891Z,11.57
2023-03-24T19:57:45.317Z,11.25
2023-03-24T20:02:57.654Z,8.65
2023-03-24T20:08:09.407Z,7.35
2023-03-24T20:13:22.231Z,7.38
2023-03-24T20:18:37.807Z,5.38
2023-03-24T20:23:52.388Z,6.18
2023-03-24T20:29:03.498Z,2.78
2023-03-24T20:34:16.489Z,6.43
2023-03-24T20:39:35.717Z,4.68
2023-03-24T20:44:47.295Z,4.20
2023-03-24T20:49:59.018Z,2.25
2023-03-24T20:55:15.422Z,2.90
2023-03-24T21:00:25.280Z,4.57
2023-03-24T21:05:39.193Z,2.22
2023-03-24T21:10:48.291Z,3.35
2023-03-24T21:15:57.013Z,5.45
2023-03-24T21:21:12.968Z,3.35
2023-03-24T21:26:20.407Z,2.97
2023-03-24T21:31:31.593Z,6.35
2023-03-24T21:36:41.016Z,3.20
2023-03-24T21:41:47.697Z,4.28
2023-03-24T21:46:57.308Z,4.65
2023-03-24T21:52:06.126Z,8.52
2023-03-24T21:57:13.882Z,5.82
2023-03-24T22:02:23.492Z,7.32
2023-03-24T22:07:37.935Z,6.85
2023-03-24T22:12:45.930Z,7.13
2023-03-24T22:17:52.735Z,4.60
2023-03-24T22:23:03.889Z,3.63
2023-03-24T22:28:10.531Z,4.45
2023-03-24T22:33:20.154Z,5.82
2023-03-24T22:38:29.182Z,2.70
2023-03-24T22:43:36.639Z,4.15
2023-03-24T22:48:43.173Z,2.60
2023-03-24T22:53:51.765Z,4.13
2023-03-24T22:58:58.248Z,5.13
2023-03-24T23:04:05.015Z,6.63
2023-03-24T23:09:12.920Z,3.67
2023-03-24T23:14:20.284Z,6.85
2023-03-24T23:19:26.828Z,6.97
2023-03-24T23:24:39.818Z,9.25
2023-03-24T23:29:48.535Z,6.35
2023-03-24T23:34:54.929Z,7.40
2023-03-24T23:40:10.060Z,5.18
2023-03-24T23:45:19.664Z,6.22
2023-03-24T23:50:26.474Z,7.22
2023-03-24T23:55:34.636Z,5.18
